sensor_id;sensor_type;location;lat;lon;timestamp;P1;durP1;ratioP1;P2;durP2;ratioP2
13204;SDS011;6667;52.634;9.226;2024-01-15T00:00:57;7.87;;;3.87;;
13204;SDS011;6667;52.634;9.226;2024-01-15T00:03:23;10.33;;;4.23;;
13204;SDS011;6667;52.634;9.226;2024-01-15T00:05:50;8.40;;;3.60;;
13204;SDS011;6667;52.634;9.226;2024-01-15T00:08:17;8.07;;;3.33;;
13204;SDS011;6667;52.634;9.226;2024-01-15T00:10:43;9.63;;;3.90;;
13204;SDS011;6667;52.634;9.226;2024-01-15T00:13:10;6.67;;;3.47;;
13204;SDS011;6667;52.634;9.226;2024-01-15T00:15:37;9.07;;;4.40;;
13204;SDS011;6667;52.634;9.226;2024-01-15T00:18:05;5.33;;;2.97;;
13204;SDS011;6667;52.634;9.226;2024-01-15T00:20:32;10.70;;;3.27;;
13204;SDS011;6667;52.634;9.226;2024-01-15T00:22:59;7.10;;;2.90;;
13204;SDS011;6667;52.634;9.226;2024-01-15T00:25:26;6.73;;;3.67;;
13204;SDS011;6667;52.634;9.226;2024-01-15T00:27:52;7.27;;;3.90;;
13204;SDS011;6667;52.634;9.226;2024-01-15T00:30:19;7.83;;;3.53;;
13204;SDS011;6667;52.634;9.226;2024-01-15T00:32:46;8.97;;;3.73;;
13204;SDS011;6667;52.634;9.226;2024-01-15T00:35:14;6.60;;;3.57;;
13204;SDS011;6667;52.634;9.226;2024-01-15T00:37:41;7.97;;;4.30;;
13204;SDS011;6667;52.634;9.226;2024-01-15T00:40:08;8.20;;;3.50;;
13204;SDS011;6667;52.634;9.226;2024-01-15T00:42:35;8.90;;;5.10;;
13204;SDS011;6667;52.634;9.226;2024-01-15T00:45:02;5.90;;;3.60;;
13204;SDS011;6667;52.634;9.226;2024-01-15T00:47:30;8.67;;;3.57;;
13204;SDS011;6667;52.634;9.226;2024-01-15T00:49:57;7.07;;;3.07;;
13204;SDS011;6667;52.634;9.226;2024-01-15T00:52:25;7.50;;;3.57;;
13204;SDS011;6667;52.634;9.226;2024-01-15T00:54:51;6.30;;;3.50;;
13204;SDS011;6667;52.634;9.226;2024-01-15T00:57:18;6.10;;;2.93;;
13204;SDS011;6667;52.634;9.226;2024-01-15T00:59:45;5.47;;;3.03;;
13204;SDS011;6667;52.634;9.226;2024-01-15T01:02:13;6.50;;;3.10;;
13204;SDS011;6667;52.634;9.226;2024-01-15T01:04:40;11.37;;;3.10;;
13204;SDS011;6667;52.634;9.226;2024-01-15T01:07:06;7.63;;;2.87;;
13204;SDS011;6667;52.634;9.226;2024-01-15T01:09:34;8.50;;;2.80;;
13204;SDS011;6667;52.634;9.226;2024-01-15T01:12:01;9.73;;;3.17;;
13204;SDS011;6667;52.634;9.226;2024-01-15T01:14:28;8.50;;;3.53;;
13204;SDS011;6667;52.634;9.226;2024-01-15T01:16:55;5.37;;;3.00;;
13204;SDS011;6667;52.634;9.226;2024-01-15T01:19:21;6.40;;;2.97;;
13204;SDS011;6667;52.634;9.226;2024-01-15T01:21:50;3.23;;;2.13;;
13204;SDS011;6667;52.634;9.226;2024-01-15T01:24:17;6.00;;;2.73;;
13204;SDS011;6667;52.634;9.226;2024-01-15T01:26:45;4.90;;;2.50;;
13204;SDS011;6667;52.634;9.226;2024-01-15T01:29:12;4.03;;;1.77;;
13204;SDS011;6667;52.634;9.226;2024-01-15T01:31:42;4.73;;;2.43;;
13204;SDS011;6667;52.634;9.226;2024-01-15T01:34:09;5.37;;;2.60;;
13204;SDS011;6667;52.634;9.226;2024-01-15T01:36:35;6.53;;;2.80;;
13204;SDS011;6667;52.634;9.226;2024-01-15T01:39:02;6.10;;;2.60;;
13204;SDS011;6667;52.634;9.226;2024-01-15T01:41:29;4.90;;;2.90;;
13204;SDS011;6667;52.634;9.226;2024-01-15T01:43:57;6.73;;;2.70;;
13204;SDS011;6667;52.634;9.226;2024-01-15T01:46:24;6.43;;;2.50;;
13204;SDS011;6667;52.634;9.226;2024-01-15T01:48:53;7.77;;;2.77;;
13204;SDS011;6667;52.634;9.226;2024-01-15T01:51:21;5.13;;;2.63;;
13204;SDS011;6667;52.634;9.226;2024-01-15T01:53:49;8.23;;;2.27;;
13204;SDS011;6667;52.634;9.226;2024-01-15T01:56:17;6.47;;;1.87;;
13204;SDS011;6667;52.634;9.226;2024-01-15T01:58:44;5.40;;;1.90;;
13204;SDS011;6667;52.634;9.226;2024-01-15T02:01:12;5.87;;;1.90;;
13204;SDS011;6667;52.634;9.226;2024-01-15T02:03:39;5.97;;;2.20;;
13204;SDS011;6667;52.634;9.226;2024-01-15T02:06:06;7.63;;;2.03;;
13204;SDS011;6667;52.634;9.226;2024-01-15T02:08:33;4.07;;;2.77;;
13204;SDS011;6667;52.634;9.226;2024-01-15T02:11:01;9.53;;;2.33;;
13204;SDS011;6667;52.634;9.226;2024-01-15T02:13:27;5.20;;;1.77;;
13204;SDS011;6667;52.634;9.226;2024-01-15T02:15:54;3.80;;;1.53;;
13204;SDS011;6667;52.634;9.226;2024-01-15T02:18:22;2.77;;;1.60;;
13204;SDS011;6667;52.634;9.226;2024-01-15T02:20:49;3.13;;;1.60;;
13204;SDS011;6667;52.634;9.226;2024-01-15T02:23:17;10.70;;;2.07;;
13204;SDS011;6667;52.634;9.226;2024-01-15T02:25:45;5.93;;;1.90;;
13204;SDS011;6667;52.634;9.226;2024-01-15T02:28:13;6.00;;;1.73;;
13204;SDS011;6667;52.634;9.226;2024-01-15T02:30:41;9.17;;;1.77;;
13204;SDS011;6667;52.634;9.226;2024-01-15T02:33:09;10.27;;;1.90;;
13204;SDS011;6667;52.634;9.226;2024-01-15T02:35:36;4.33;;;1.57;;
13204;SDS011;6667;52.634;9.226;2024-01-15T02:38:04;6.70;;;1.67;;
13204;SDS011;6667;52.634;9.226;2024-01-15T02:40:33;6.60;;;2.03;;
13204;SDS011;6667;52.634;9.226;2024-01-15T02:43:01;10.37;;;2.07;;
13204;SDS011;6667;52.634;9.226;2024-01-15T02:45:28;6.30;;;2.00;;
13204;SDS011;6667;52.634;9.226;2024-01-15T02:47:54;4.23;;;2.13;;
13204;SDS011;6667;52.634;9.226;2024-01-15T02:50:21;5.83;;;2.07;;
13204;SDS011;6667;52.634;9.226;2024-01-15T02:52:48;9.30;;;2.20;;
13204;SDS011;6667;52.634;9.226;2024-01-15T02:55:15;8.00;;;1.73;;
13204;SDS011;6667;52.634;9.226;2024-01-15T03:04:47;8.10;;;2.10;;
13204;SDS011;6667;52.634;9.226;2024-01-15T03:07:14;4.30;;;1.60;;
13204;SDS011;6667;52.634;9.226;2024-01-15T03:09:41;8.27;;;2.00;;
13204;SDS011;6667;52.634;9.226;2024-01-15T03:12:08;4.27;;;2.07;;
13204;SDS011;6667;52.634;9.226;2024-01-15T03:14:36;5.30;;;1.60;;
13204;SDS011;6667;52.634;9.226;2024-01-15T03:17:14;2.87;;;1.10;;
13204;SDS011;6667;52.634;9.226;2024-01-15T03:20:04;7.60;;;2.57;;
13204;SDS011;6667;52.634;9.226;2024-01-15T03:22:33;6.67;;;1.73;;
13204;SDS011;6667;52.634;9.226;2024-01-15T03:25:01;8.23;;;2.73;;
13204;SDS011;6667;52.634;9.226;2024-01-15T03:27:29;6.20;;;1.67;;
13204;SDS011;6667;52.634;9.226;2024-01-15T03:29:56;6.80;;;1.90;;
13204;SDS011;6667;52.634;9.226;2024-01-15T03:32:24;7.47;;;1.40;;
13204;SDS011;6667;52.634;9.226;2024-01-15T03:34:51;12.07;;;2.60;;
13204;SDS011;6667;52.634;9.226;2024-01-15T03:37:20;6.43;;;1.93;;
13204;SDS011;6667;52.634;9.226;2024-01-15T03:39:54;4.23;;;1.13;;
13204;SDS011;6667;52.634;9.226;2024-01-15T03:42:21;7.47;;;1.93;;
13204;SDS011;6667;52.634;9.226;2024-01-15T03:44:54;4.97;;;1.70;;
13204;SDS011;6667;52.634;9.226;2024-01-15T03:47:33;4.63;;;1.70;;
13204;SDS011;6667;52.634;9.226;2024-01-15T03:50:00;5.70;;;1.50;;
13204;SDS011;6667;52.634;9.226;2024-01-15T03:52:32;9.90;;;1.90;;
13204;SDS011;6667;52.634;9.226;2024-01-15T03:55:00;9.17;;;1.80;;
13204;SDS011;6667;52.634;9.226;2024-01-15T03:57:27;7.67;;;1.77;;
13204;SDS011;6667;52.634;9.226;2024-01-15T03:59:55;4.40;;;1.63;;
13204;SDS011;6667;52.634;9.226;2024-01-15T04:02:23;4.17;;;2.23;;
13204;SDS011;6667;52.634;9.226;2024-01-15T04:04:50;5.20;;;1.90;;
13204;SDS011;6667;52.634;9.226;2024-01-15T04:07:17;4.93;;;1.77;;
13204;SDS011;6667;52.634;9.226;2024-01-15T04:09:52;7.57;;;2.03;;
13204;SDS011;6667;52.634;9.226;2024-01-15T04:12:19;5.87;;;1.43;;
13204;SDS011;6667;52.634;9.226;2024-01-15T04:14:46;10.33;;;2.20;;
13204;SDS011;6667;52.634;9.226;2024-01-15T04:17:13;4.77;;;2.03;;
13204;SDS011;6667;52.634;9.226;2024-01-15T04:19:44;6.10;;;1.73;;
13204;SDS011;6667;52.634;9.226;2024-01-15T04:22:14;21.07;;;2.50;;
13204;SDS011;6667;52.634;9.226;2024-01-15T04:24:45;11.13;;;2.47;;
13204;SDS011;6667;52.634;9.226;2024-01-15T04:27:25;9.63;;;2.50;;
13204;SDS011;6667;52.634;9.226;2024-01-15T04:29:52;7.00;;;2.10;;
13204;SDS011;6667;52.634;9.226;2024-01-15T04:32:29;10.53;;;2.57;;
13204;SDS011;6667;52.634;9.226;2024-01-15T04:34:56;7.07;;;1.70;;
13204;SDS011;6667;52.634;9.226;2024-01-15T04:37:23;5.87;;;2.17;;
13204;SDS011;6667;52.634;9.226;2024-01-15T04:40:01;3.33;;;2.17;;
13204;SDS011;6667;52.634;9.226;2024-01-15T04:42:32;7.27;;;2.27;;
13204;SDS011;6667;52.634;9.226;2024-01-15T04:45:02;8.83;;;2.73;;
13204;SDS011;6667;52.634;9.226;2024-01-15T04:47:49;6.30;;;2.20;;
13204;SDS011;6667;52.634;9.226;2024-01-15T04:50:34;6.67;;;2.50;;
13204;SDS011;6667;52.634;9.226;2024-01-15T04:53:01;8.27;;;1.73;;
13204;SDS011;6667;52.634;9.226;2024-01-15T04:55:30;7.00;;;2.63;;
13204;SDS011;6667;52.634;9.226;2024-01-15T04:57:58;8.87;;;3.40;;
13204;SDS011;6667;52.634;9.226;2024-01-15T05:00:25;5.23;;;2.67;;
13204;SDS011;6667;52.634;9.226;2024-01-15T05:02:52;7.57;;;2.37;;
13204;SDS011;6667;52.634;9.226;2024-01-15T05:05:19;7.63;;;2.50;;
13204;SDS011;6667;52.634;9.226;2024-01-15T05:07:47;8.17;;;2.27;;
13204;SDS011;6667;52.634;9.226;2024-01-15T05:10:14;4.43;;;2.10;;
13204;SDS011;6667;52.634;9.226;2024-01-15T05:12:49;3.33;;;1.97;;
13204;SDS011;6667;52.634;9.226;2024-01-15T05:15:17;5.33;;;2.30;;
13204;SDS011;6667;52.634;9.226;2024-01-15T05:17:50;5.63;;;2.10;;
13204;SDS011;6667;52.634;9.226;2024-01-15T05:20:20;2.30;;;2.00;;
13204;SDS011;6667;52.634;9.226;2024-01-15T05:22:48;8.37;;;2.00;;
13204;SDS011;6667;52.634;9.226;2024-01-15T05:25:15;9.10;;;2.07;;
13204;SDS011;6667;52.634;9.226;2024-01-15T05:27:58;6.37;;;2.23;;
13204;SDS011;6667;52.634;9.226;2024-01-15T05:30:25;4.30;;;2.70;;
13204;SDS011;6667;52.634;9.226;2024-01-15T05:32:52;5.30;;;2.37;;
13204;SDS011;6667;52.634;9.226;2024-01-15T05:35:19;3.93;;;1.90;;
13204;SDS011;6667;52.634;9.226;2024-01-15T05:37:46;8.50;;;2.77;;
13204;SDS011;6667;52.634;9.226;2024-01-15T05:40:13;7.87;;;2.40;;
13204;SDS011;6667;52.634;9.226;2024-01-15T05:42:40;4.00;;;2.03;;
13204;SDS011;6667;52.634;9.226;2024-01-15T05:45:09;4.90;;;2.30;;
13204;SDS011;6667;52.634;9.226;2024-01-15T05:47:36;4.53;;;2.50;;
13204;SDS011;6667;52.634;9.226;2024-01-15T05:50:12;6.70;;;3.30;;
13204;SDS011;6667;52.634;9.226;2024-01-15T05:52:41;8.37;;;3.83;;
13204;SDS011;6667;52.634;9.226;2024-01-15T05:55:08;9.90;;;3.30;;
13204;SDS011;6667;52.634;9.226;2024-01-15T05:57:36;6.63;;;2.67;;
13204;SDS011;6667;52.634;9.226;2024-01-15T06:00:03;6.67;;;2.87;;
13204;SDS011;6667;52.634;9.226;2024-01-15T06:02:33;9.93;;;3.60;;
13204;SDS011;6667;52.634;9.226;2024-01-15T06:05:00;3.53;;;2.00;;
13204;SDS011;6667;52.634;9.226;2024-01-15T06:07:28;7.27;;;2.40;;
13204;SDS011;6667;52.634;9.226;2024-01-15T06:09:55;3.50;;;1.53;;
13204;SDS011;6667;52.634;9.226;2024-01-15T06:12:22;6.43;;;2.60;;
13204;SDS011;6667;52.634;9.226;2024-01-15T06:14:49;7.70;;;2.33;;
13204;SDS011;6667;52.634;9.226;2024-01-15T06:17:17;5.57;;;2.63;;
13204;SDS011;6667;52.634;9.226;2024-01-15T06:19:45;12.63;;;2.83;;
13204;SDS011;6667;52.634;9.226;2024-01-15T06:22:12;3.30;;;2.50;;
13204;SDS011;6667;52.634;9.226;2024-01-15T06:24:43;5.53;;;2.00;;
13204;SDS011;6667;52.634;9.226;2024-01-15T06:27:13;5.37;;;2.10;;
13204;SDS011;6667;52.634;9.226;2024-01-15T06:29:44;2.47;;;1.50;;
13204;SDS011;6667;52.634;9.226;2024-01-15T06:32:12;5.23;;;2.07;;
13204;SDS011;6667;52.634;9.226;2024-01-15T06:34:39;9.17;;;1.90;;
13204;SDS011;6667;52.634;9.226;2024-01-15T06:37:07;3.53;;;1.90;;
13204;SDS011;6667;52.634;9.226;2024-01-15T06:39:34;5.77;;;1.80;;
13204;SDS011;6667;52.634;9.226;2024-01-15T06:42:01;4.53;;;1.73;;
13204;SDS011;6667;52.634;9.226;2024-01-15T06:44:29;6.57;;;2.00;;
13204;SDS011;6667;52.634;9.226;2024-01-15T06:46:56;7.50;;;2.50;;
13204;SDS011;6667;52.634;9.226;2024-01-15T06:49:27;6.90;;;2.00;;
13204;SDS011;6667;52.634;9.226;2024-01-15T06:51:54;6.00;;;2.13;;
13204;SDS011;6667;52.634;9.226;2024-01-15T06:54:23;4.10;;;1.90;;
13204;SDS011;6667;52.634;9.226;2024-01-15T06:56:51;8.30;;;2.00;;
13204;SDS011;6667;52.634;9.226;2024-01-15T06:59:18;6.23;;;2.23;;
13204;SDS011;6667;52.634;9.226;2024-01-15T07:01:45;10.23;;;2.23;;
13204;SDS011;6667;52.634;9.226;2024-01-15T07:04:12;4.63;;;2.00;;
13204;SDS011;6667;52.634;9.226;2024-01-15T07:06:40;2.50;;;1.87;;
13204;SDS011;6667;52.634;9.226;2024-01-15T07:09:07;7.90;;;2.33;;
13204;SDS011;6667;52.634;9.226;2024-01-15T07:11:35;2.90;;;1.87;;
13204;SDS011;6667;52.634;9.226;2024-01-15T07:14:03;3.77;;;1.83;;
13204;SDS011;6667;52.634;9.226;2024-01-15T07:16:30;11.40;;;2.03;;
13204;SDS011;6667;52.634;9.226;2024-01-15T07:18:57;4.27;;;1.60;;
13204;SDS011;6667;52.634;9.226;2024-01-15T07:21:24;8.97;;;2.53;;
13204;SDS011;6667;52.634;9.226;2024-01-15T07:23:51;5.77;;;2.80;;
13204;SDS011;6667;52.634;9.226;2024-01-15T07:26:18;4.90;;;2.90;;
13204;SDS011;6667;52.634;9.226;2024-01-15T07:28:46;5.17;;;2.70;;
13204;SDS011;6667;52.634;9.226;2024-01-15T07:31:15;6.63;;;3.00;;
13204;SDS011;6667;52.634;9.226;2024-01-15T07:33:45;6.53;;;2.47;;
13204;SDS011;6667;52.634;9.226;2024-01-15T07:36:12;7.50;;;3.60;;
13204;SDS011;6667;52.634;9.226;2024-01-15T07:38:39;6.20;;;2.80;;
13204;SDS011;6667;52.634;9.226;2024-01-15T07:41:06;3.53;;;2.20;;
13204;SDS011;6667;52.634;9.226;2024-01-15T07:43:34;3.70;;;2.23;;
13204;SDS011;6667;52.634;9.226;2024-01-15T07:46:02;5.00;;;2.13;;
13204;SDS011;6667;52.634;9.226;2024-01-15T07:48:29;4.60;;;3.13;;
13204;SDS011;6667;52.634;9.226;2024-01-15T07:50:56;6.30;;;2.80;;
13204;SDS011;6667;52.634;9.226;2024-01-15T07:53:23;5.40;;;2.60;;
13204;SDS011;6667;52.634;9.226;2024-01-15T07:55:50;5.23;;;1.83;;
13204;SDS011;6667;52.634;9.226;2024-01-15T07:58:17;2.93;;;1.97;;
13204;SDS011;6667;52.634;9.226;2024-01-15T08:00:45;6.77;;;2.83;;
13204;SDS011;6667;52.634;9.226;2024-01-15T08:03:13;4.30;;;2.47;;
13204;SDS011;6667;52.634;9.226;2024-01-15T08:05:41;3.70;;;1.70;;
13204;SDS011;6667;52.634;9.226;2024-01-15T08:08:08;6.47;;;2.17;;
13204;SDS011;6667;52.634;9.226;2024-01-15T08:10:35;8.63;;;2.10;;
13204;SDS011;6667;52.634;9.226;2024-01-15T08:13:02;5.33;;;2.10;;
13204;SDS011;6667;52.634;9.226;2024-01-15T08:15:29;5.13;;;2.00;;
13204;SDS011;6667;52.634;9.226;2024-01-15T08:17:56;5.60;;;1.90;;
13204;SDS011;6667;52.634;9.226;2024-01-15T08:20:25;4.60;;;2.13;;
13204;SDS011;6667;52.634;9.226;2024-01-15T08:22:51;2.90;;;2.00;;
13204;SDS011;6667;52.634;9.226;2024-01-15T08:25:18;4.60;;;2.00;;
13204;SDS011;6667;52.634;9.226;2024-01-15T08:27:45;4.67;;;2.83;;
13204;SDS011;6667;52.634;9.226;2024-01-15T08:30:13;5.20;;;1.83;;
13204;SDS011;6667;52.634;9.226;2024-01-15T08:32:40;2.17;;;1.47;;
13204;SDS011;6667;52.634;9.226;2024-01-15T08:35:07;8.17;;;2.10;;
13204;SDS011;6667;52.634;9.226;2024-01-15T08:37:36;2.43;;;1.60;;
13204;SDS011;6667;52.634;9.226;2024-01-15T08:40:04;5.20;;;2.17;;
13204;SDS011;6667;52.634;9.226;2024-01-15T08:42:32;4.30;;;2.33;;
13204;SDS011;6667;52.634;9.226;2024-01-15T08:45:00;6.87;;;2.27;;
13204;SDS011;6667;52.634;9.226;2024-01-15T08:47:27;7.80;;;2.43;;
13204;SDS011;6667;52.634;9.226;2024-01-15T08:49:54;2.97;;;1.87;;
13204;SDS011;6667;52.634;9.226;2024-01-15T08:52:21;7.50;;;2.73;;
13204;SDS011;6667;52.634;9.226;2024-01-15T08:54:50;5.10;;;2.53;;
13204;SDS011;6667;52.634;9.226;2024-01-15T08:57:17;9.10;;;2.77;;
13204;SDS011;6667;52.634;9.226;2024-01-15T08:59:47;6.97;;;2.83;;
13204;SDS011;6667;52.634;9.226;2024-01-15T09:02:14;4.43;;;2.40;;
13204;SDS011;6667;52.634;9.226;2024-01-15T09:04:41;7.53;;;2.80;;
13204;SDS011;6667;52.634;9.226;2024-01-15T09:07:08;7.20;;;2.67;;
13204;SDS011;6667;52.634;9.226;2024-01-15T09:09:36;8.50;;;2.30;;
13204;SDS011;6667;52.634;9.226;2024-01-15T09:12:05;14.10;;;3.20;;
13204;SDS011;6667;52.634;9.226;2024-01-15T09:14:32;5.43;;;2.37;;
13204;SDS011;6667;52.634;9.226;2024-01-15T09:16:59;5.93;;;2.60;;
13204;SDS011;6667;52.634;9.226;2024-01-15T09:19:29;6.80;;;2.47;;
13204;SDS011;6667;52.634;9.226;2024-01-15T09:21:57;5.40;;;2.57;;
13204;SDS011;6667;52.634;9.226;2024-01-15T09:24:24;10.53;;;2.70;;
13204;SDS011;6667;52.634;9.226;2024-01-15T09:26:51;8.33;;;2.77;;
13204;SDS011;6667;52.634;9.226;2024-01-15T09:29:19;3.67;;;2.20;;
13204;SDS011;6667;52.634;9.226;2024-01-15T09:31:48;4.23;;;2.27;;
13204;SDS011;6667;52.634;9.226;2024-01-15T09:34:17;4.87;;;1.97;;
13204;SDS011;6667;52.634;9.226;2024-01-15T09:36:50;5.20;;;2.57;;
13204;SDS011;6667;52.634;9.226;2024-01-15T09:39:18;4.90;;;1.70;;
13204;SDS011;6667;52.634;9.226;2024-01-15T09:41:45;6.30;;;2.17;;
13204;SDS011;6667;52.634;9.226;2024-01-15T09:44:14;2.97;;;1.70;;
13204;SDS011;6667;52.634;9.226;2024-01-15T09:46:43;5.30;;;1.80;;
13204;SDS011;6667;52.634;9.226;2024-01-15T09:49:11;4.63;;;1.73;;
13204;SDS011;6667;52.634;9.226;2024-01-15T09:51:38;2.83;;;1.47;;
13204;SDS011;6667;52.634;9.226;2024-01-15T09:54:09;4.40;;;1.40;;
13204;SDS011;6667;52.634;9.226;2024-01-15T09:56:38;5.00;;;1.60;;
13204;SDS011;6667;52.634;9.226;2024-01-15T09:59:06;2.10;;;1.33;;
13204;SDS011;6667;52.634;9.226;2024-01-15T10:01:33;2.90;;;1.83;;
13204;SDS011;6667;52.634;9.226;2024-01-15T10:04:05;4.13;;;1.70;;
13204;SDS011;6667;52.634;9.226;2024-01-15T10:06:32;3.80;;;1.73;;
13204;SDS011;6667;52.634;9.226;2024-01-15T10:09:00;5.90;;;1.97;;
13204;SDS011;6667;52.634;9.226;2024-01-15T10:11:28;7.17;;;2.17;;
13204;SDS011;6667;52.634;9.226;2024-01-15T10:13:56;3.70;;;2.20;;
13204;SDS011;6667;52.634;9.226;2024-01-15T10:16:24;4.17;;;1.90;;
13204;SDS011;6667;52.634;9.226;2024-01-15T10:18:51;4.87;;;2.73;;
13204;SDS011;6667;52.634;9.226;2024-01-15T10:21:23;6.17;;;2.50;;
13204;SDS011;6667;52.634;9.226;2024-01-15T10:23:57;6.63;;;2.90;;
13204;SDS011;6667;52.634;9.226;2024-01-15T10:26:35;7.90;;;2.77;;
13204;SDS011;6667;52.634;9.226;2024-01-15T10:29:06;3.63;;;2.33;;
13204;SDS011;6667;52.634;9.226;2024-01-15T10:31:33;3.17;;;1.90;;
13204;SDS011;6667;52.634;9.226;2024-01-15T10:34:09;4.63;;;1.83;;
13204;SDS011;6667;52.634;9.226;2024-01-15T10:36:45;5.77;;;2.37;;
13204;SDS011;6667;52.634;9.226;2024-01-15T10:39:17;3.97;;;2.00;;
13204;SDS011;6667;52.634;9.226;2024-01-15T10:44:44;2.73;;;1.93;;
13204;SDS011;6667;52.634;9.226;2024-01-15T10:47:17;7.97;;;1.90;;
13204;SDS011;6667;52.634;9.226;2024-01-15T10:49:46;3.80;;;2.00;;
13204;SDS011;6667;52.634;9.226;2024-01-15T10:52:14;8.23;;;2.10;;
13204;SDS011;6667;52.634;9.226;2024-01-15T10:54:41;4.20;;;2.17;;
13204;SDS011;6667;52.634;9.226;2024-01-15T10:57:10;4.27;;;2.03;;
13204;SDS011;6667;52.634;9.226;2024-01-15T10:59:38;4.90;;;1.97;;
13204;SDS011;6667;52.634;9.226;2024-01-15T11:02:05;3.77;;;1.93;;
13204;SDS011;6667;52.634;9.226;2024-01-15T11:04:32;5.87;;;1.90;;
13204;SDS011;6667;52.634;9.226;2024-01-15T11:07:01;7.90;;;2.73;;
13204;SDS011;6667;52.634;9.226;2024-01-15T11:09:30;6.70;;;2.67;;
13204;SDS011;6667;52.634;9.226;2024-01-15T11:12:08;5.27;;;1.73;;
13204;SDS011;6667;52.634;9.226;2024-01-15T11:14:41;4.30;;;2.00;;
13204;SDS011;6667;52.634;9.226;2024-01-15T11:17:11;5.50;;;2.40;;
13204;SDS011;6667;52.634;9.226;2024-01-15T11:19:42;4.27;;;1.80;;
13204;SDS011;6667;52.634;9.226;2024-01-15T11:22:10;5.87;;;2.10;;
13204;SDS011;6667;52.634;9.226;2024-01-15T11:25:01;6.13;;;2.60;;
13204;SDS011;6667;52.634;9.226;2024-01-15T11:27:39;6.13;;;2.30;;
13204;SDS011;6667;52.634;9.226;2024-01-15T11:30:08;4.63;;;2.57;;
13204;SDS011;6667;52.634;9.226;2024-01-15T11:32:35;4.10;;;2.33;;
13204;SDS011;6667;52.634;9.226;2024-01-15T11:35:05;9.00;;;2.57;;
13204;SDS011;6667;52.634;9.226;2024-01-15T11:43:12;11.23;;;2.87;;
13204;SDS011;6667;52.634;9.226;2024-01-15T11:45:49;7.13;;;2.73;;
13204;SDS011;6667;52.634;9.226;2024-01-15T11:48:19;7.30;;;2.37;;
13204;SDS011;6667;52.634;9.226;2024-01-15T11:50:59;7.83;;;2.73;;
13204;SDS011;6667;52.634;9.226;2024-01-15T11:53:36;6.60;;;2.93;;
13204;SDS011;6667;52.634;9.226;2024-01-15T11:56:14;6.00;;;2.70;;
13204;SDS011;6667;52.634;9.226;2024-01-15T11:58:42;5.47;;;3.00;;
13204;SDS011;6667;52.634;9.226;2024-01-15T12:01:10;6.50;;;2.50;;
13204;SDS011;6667;52.634;9.226;2024-01-15T12:03:37;11.90;;;2.57;;
13204;SDS011;6667;52.634;9.226;2024-01-15T12:06:05;7.33;;;2.83;;
13204;SDS011;6667;52.634;9.226;2024-01-15T12:08:33;7.20;;;2.80;;
13204;SDS011;6667;52.634;9.226;2024-01-15T12:11:00;7.03;;;2.63;;
13204;SDS011;6667;52.634;9.226;2024-01-15T12:13:34;4.57;;;2.23;;
13204;SDS011;6667;52.634;9.226;2024-01-15T12:16:01;6.97;;;2.50;;
13204;SDS011;6667;52.634;9.226;2024-01-15T12:18:31;15.80;;;3.07;;
13204;SDS011;6667;52.634;9.226;2024-01-15T12:20:58;18.40;;;2.70;;
13204;SDS011;6667;52.634;9.226;2024-01-15T12:23:25;6.20;;;2.17;;
13204;SDS011;6667;52.634;9.226;2024-01-15T12:25:53;7.90;;;2.20;;
13204;SDS011;6667;52.634;9.226;2024-01-15T12:28:20;7.47;;;2.80;;
13204;SDS011;6667;52.634;9.226;2024-01-15T12:30:49;4.80;;;2.20;;
13204;SDS011;6667;52.634;9.226;2024-01-15T12:33:18;4.93;;;2.50;;
13204;SDS011;6667;52.634;9.226;2024-01-15T12:35:46;7.40;;;2.07;;
13204;SDS011;6667;52.634;9.226;2024-01-15T12:38:13;6.93;;;2.80;;
13204;SDS011;6667;52.634;9.226;2024-01-15T12:40:40;4.93;;;2.33;;
13204;SDS011;6667;52.634;9.226;2024-01-15T12:43:11;3.70;;;2.20;;
13204;SDS011;6667;52.634;9.226;2024-01-15T12:45:38;6.67;;;2.60;;
13204;SDS011;6667;52.634;9.226;2024-01-15T12:48:10;4.87;;;1.83;;
13204;SDS011;6667;52.634;9.226;2024-01-15T12:50:38;4.27;;;2.33;;
13204;SDS011;6667;52.634;9.226;2024-01-15T12:53:06;3.53;;;2.03;;
13204;SDS011;6667;52.634;9.226;2024-01-15T12:55:53;5.43;;;2.13;;
13204;SDS011;6667;52.634;9.226;2024-01-15T12:58:21;7.30;;;3.03;;
13204;SDS011;6667;52.634;9.226;2024-01-15T13:00:57;4.07;;;2.43;;
13204;SDS011;6667;52.634;9.226;2024-01-15T13:03:25;14.57;;;3.77;;
13204;SDS011;6667;52.634;9.226;2024-01-15T13:05:58;5.83;;;2.67;;
13204;SDS011;6667;52.634;9.226;2024-01-15T13:08:25;6.87;;;2.13;;
13204;SDS011;6667;52.634;9.226;2024-01-15T13:10:53;5.47;;;2.43;;
13204;SDS011;6667;52.634;9.226;2024-01-15T13:13:22;6.07;;;2.50;;
13204;SDS011;6667;52.634;9.226;2024-01-15T13:15:48;5.93;;;2.40;;
13204;SDS011;6667;52.634;9.226;2024-01-15T13:18:17;4.87;;;3.33;;
13204;SDS011;6667;52.634;9.226;2024-01-15T13:20:45;4.60;;;2.20;;
13204;SDS011;6667;52.634;9.226;2024-01-15T13:23:15;7.43;;;2.70;;
13204;SDS011;6667;52.634;9.226;2024-01-15T13:25:42;5.60;;;2.57;;
13204;SDS011;6667;52.634;9.226;2024-01-15T13:28:09;7.17;;;2.00;;
13204;SDS011;6667;52.634;9.226;2024-01-15T13:30:36;4.40;;;2.27;;
13204;SDS011;6667;52.634;9.226;2024-01-15T13:33:03;3.27;;;2.20;;
13204;SDS011;6667;52.634;9.226;2024-01-15T13:35:31;7.47;;;2.50;;
13204;SDS011;6667;52.634;9.226;2024-01-15T13:37:59;2.53;;;1.90;;
13204;SDS011;6667;52.634;9.226;2024-01-15T13:40:26;2.13;;;1.53;;
13204;SDS011;6667;52.634;9.226;2024-01-15T13:42:53;6.30;;;2.80;;
13204;SDS011;6667;52.634;9.226;2024-01-15T13:45:20;4.30;;;2.20;;
13204;SDS011;6667;52.634;9.226;2024-01-15T13:47:49;3.47;;;2.10;;
13204;SDS011;6667;52.634;9.226;2024-01-15T13:50:16;7.57;;;2.10;;
13204;SDS011;6667;52.634;9.226;2024-01-15T13:52:43;3.83;;;1.80;;
13204;SDS011;6667;52.634;9.226;2024-01-15T13:55:11;6.60;;;2.27;;
13204;SDS011;6667;52.634;9.226;2024-01-15T13:57:38;4.63;;;1.60;;
13204;SDS011;6667;52.634;9.226;2024-01-15T14:00:06;5.27;;;1.90;;
13204;SDS011;6667;52.634;9.226;2024-01-15T14:02:36;5.87;;;1.90;;
13204;SDS011;6667;52.634;9.226;2024-01-15T14:05:03;4.50;;;1.70;;
13204;SDS011;6667;52.634;9.226;2024-01-15T14:07:31;3.27;;;1.83;;
13204;SDS011;6667;52.634;9.226;2024-01-15T14:09:58;6.83;;;1.83;;
13204;SDS011;6667;52.634;9.226;2024-01-15T14:12:26;4.83;;;2.00;;
13204;SDS011;6667;52.634;9.226;2024-01-15T14:14:53;2.30;;;1.63;;
13204;SDS011;6667;52.634;9.226;2024-01-15T14:17:20;5.20;;;2.03;;
13204;SDS011;6667;52.634;9.226;2024-01-15T14:19:47;3.70;;;1.77;;
13204;SDS011;6667;52.634;9.226;2024-01-15T14:22:14;2.97;;;1.87;;
13204;SDS011;6667;52.634;9.226;2024-01-15T14:24:41;2.67;;;1.57;;
13204;SDS011;6667;52.634;9.226;2024-01-15T14:27:08;6.10;;;2.20;;
13204;SDS011;6667;52.634;9.226;2024-01-15T14:29:36;3.07;;;1.80;;
13204;SDS011;6667;52.634;9.226;2024-01-15T14:32:03;2.90;;;1.53;;
13204;SDS011;6667;52.634;9.226;2024-01-15T14:34:31;4.50;;;1.70;;
13204;SDS011;6667;52.634;9.226;2024-01-15T14:36:58;2.13;;;1.67;;
13204;SDS011;6667;52.634;9.226;2024-01-15T14:39:25;5.40;;;2.00;;
13204;SDS011;6667;52.634;9.226;2024-01-15T14:41:52;3.80;;;2.10;;
13204;SDS011;6667;52.634;9.226;2024-01-15T14:44:19;2.73;;;2.00;;
13204;SDS011;6667;52.634;9.226;2024-01-15T14:46:47;5.60;;;2.37;;
13204;SDS011;6667;52.634;9.226;2024-01-15T14:49:15;5.20;;;3.13;;
13204;SDS011;6667;52.634;9.226;2024-01-15T14:51:43;4.90;;;3.30;;
13204;SDS011;6667;52.634;9.226;2024-01-15T14:54:10;4.27;;;3.03;;
13204;SDS011;6667;52.634;9.226;2024-01-15T14:56:37;3.07;;;2.60;;
13204;SDS011;6667;52.634;9.226;2024-01-15T14:59:04;4.37;;;2.30;;
13204;SDS011;6667;52.634;9.226;2024-01-15T15:01:31;3.67;;;2.43;;
13204;SDS011;6667;52.634;9.226;2024-01-15T15:04:03;2.07;;;1.70;;
13204;SDS011;6667;52.634;9.226;2024-01-15T15:06:30;2.27;;;1.63;;
13204;SDS011;6667;52.634;9.226;2024-01-15T15:08:58;3.70;;;1.77;;
13204;SDS011;6667;52.634;9.226;2024-01-15T15:11:25;2.17;;;1.70;;
13204;SDS011;6667;52.634;9.226;2024-01-15T15:13:53;3.83;;;1.40;;
13204;SDS011;6667;52.634;9.226;2024-01-15T15:16:34;2.40;;;1.40;;
13204;SDS011;6667;52.634;9.226;2024-01-15T15:19:01;1.80;;;1.17;;
13204;SDS011;6667;52.634;9.226;2024-01-15T15:21:29;3.37;;;1.80;;
13204;SDS011;6667;52.634;9.226;2024-01-15T15:23:59;1.53;;;1.40;;